Time;durP1;ratioP1;P1;durP2;ratioP2;P2;SDS_P1;SDS_P2;PMS_P1;PMS_P2;Temp;Humidity;BMP_temperature;BMP_pressure;BME280_temperature;BME280_humidity;BME280_pressure;Samples;Min_cycle;Max_cycle;Signal;HPM_P1;HPM_P2
2021/12/16 00:09:53;;;;;;;28.63;22.20;;;10.50;99.90;;;;;;4992147;28;20242;-84
2021/12/16 00:29:31;;;;;;;30.07;21.57;;;10.40;99.90;;;;;;5017938;28;20212;-87
2021/12/16 00:31:59;;;;;;;28.83;21.47;;;10.50;99.90;;;;;;5032170;28;20190;-87
2021/12/16 00:34:29;;;;;;;30.67;21.80;;;10.40;99.90;;;;;;5037466;28;20177;-87
2021/12/16 00:37:01;;;;;;;27.90;22.00;;;10.40;99.90;;;;;;5021301;28;20231;-84
2021/12/16 00:40:17;;;;;;;28.77;21.67;;;10.50;99.90;;;;;;5032277;28;20226;-82
2021/12/16 00:54:13;;;;;;;30.33;22.57;;;10.50;99.90;;;;;;5016704;28;20750;-87
2021/12/16 00:56:54;;;;;;;31.50;21.97;;;10.50;99.90;;;;;;5014148;28;20286;-90
2021/12/16 00:59:21;;;;;;;29.70;21.93;;;10.60;99.90;;;;;;5013838;28;20654;-88
2021/12/16 01:02:01;;;;;;;28.83;22.30;;;10.50;99.90;;;;;;5015291;28;20181;-84
2021/12/16 01:05:03;;;;;;;28.47;22.23;;;10.30;99.90;;;;;;5018854;28;20642;-86
2021/12/16 01:33:34;;;;;;;28.23;22.03;;;10.50;99.90;;;;;;5031522;28;20210;-85
2021/12/16 01:35:18;;;;;;;28.33;23.10;;;10.40;99.90;;;;;;5019135;28;20220;-90
2021/12/16 01:45:53;;;;;;;29.70;22.07;;;10.40;99.90;;;;;;5019997;28;20193;-87
2021/12/16 01:51:05;;;;;;;30.23;23.10;;;10.40;99.90;;;;;;5019664;28;20174;-86
2021/12/16 01:56:28;;;;;;;27.80;22.10;;;10.30;99.90;;;;;;5031644;28;20158;-91
2021/12/16 01:59:00;;;;;;;33.47;23.33;;;10.30;99.90;;;;;;5040152;28;20226;-84
2021/12/16 02:01:32;;;;;;;28.27;23.20;;;10.40;99.90;;;;;;5036720;28;20668;-85
2021/12/16 02:04:23;;;;;;;29.10;22.40;;;10.50;99.90;;;;;;5035990;28;20171;-83
2021/12/16 02:07:32;;;;;;;29.30;23.07;;;10.50;99.90;;;;;;5019668;28;20186;-89
2021/12/16 02:10:03;;;;;;;28.33;22.00;;;10.50;99.90;;;;;;5017691;28;20245;-85
2021/12/16 02:12:58;;;;;;;29.97;22.83;;;10.50;99.90;;;;;;5018233;28;20178;-88
2021/12/16 02:30:05;;;;;;;32.10;24.10;;;10.30;99.90;;;;;;5019602;28;20209;-87
2021/12/16 02:35:27;;;;;;;30.43;23.87;;;10.50;99.90;;;;;;5034034;28;20604;-90
2021/12/16 02:37:55;;;;;;;27.03;22.53;;;10.60;99.90;;;;;;5038201;28;20171;-83
2021/12/16 02:40:24;;;;;;;29.93;23.83;;;10.60;99.90;;;;;;5017586;28;20177;-82
2021/12/16 02:43:00;;;;;;;30.60;23.13;;;10.60;99.90;;;;;;5034910;28;20169;-83
2021/12/16 02:48:41;;;;;;;27.97;22.90;;;10.50;99.90;;;;;;5028442;28;20169;-84
2021/12/16 02:51:15;;;;;;;30.83;23.13;;;10.50;99.90;;;;;;5021679;28;20174;-88
2021/12/16 02:53:56;;;;;;;30.47;24.10;;;10.70;99.90;;;;;;5016456;28;20232;-86
2021/12/16 02:56:22;;;;;;;28.23;22.40;;;10.60;99.90;;;;;;5017436;28;20186;-85
2021/12/16 02:58:54;;;;;;;29.43;23.90;;;10.60;99.90;;;;;;5038394;28;20176;-84
2021/12/16 03:01:30;;;;;;;33.97;23.40;;;10.70;99.90;;;;;;5036663;28;20158;-83
2021/12/16 03:03:58;;;;;;;30.60;22.73;;;10.60;99.90;;;;;;5028122;28;20232;-84
2021/12/16 03:06:29;;;;;;;28.07;23.93;;;10.60;99.90;;;;;;5028478;28;20194;-88
2021/12/16 03:09:00;;;;;;;28.83;22.73;;;10.80;99.90;;;;;;5007797;28;20245;-84
2021/12/16 03:12:26;;;;;;;30.77;24.20;;;10.70;99.90;;;;;;5019764;28;20217;-88
2021/12/16 03:17:00;;;;;;;32.37;23.90;;;10.70;99.90;;;;;;5038169;28;20169;-87
2021/12/16 03:21:58;;;;;;;31.07;24.13;;;10.50;99.90;;;;;;5037799;28;20166;-82
2021/12/16 03:24:43;;;;;;;29.37;23.70;;;10.60;99.90;;;;;;5033245;28;20181;-85
2021/12/16 03:35:50;;;;;;;28.20;23.63;;;10.50;99.90;;;;;;5017808;28;20170;-89
2021/12/16 03:38:16;;;;;;;29.63;23.27;;;10.50;99.90;;;;;;5021763;28;20273;-84
2021/12/16 03:40:42;;;;;;;27.43;22.73;;;10.60;99.90;;;;;;5029155;28;20839;-82
2021/12/16 03:43:13;;;;;;;31.33;24.03;;;10.40;99.90;;;;;;5030230;28;20185;-85
2021/12/16 03:48:53;;;;;;;32.10;23.97;;;10.40;99.90;;;;;;5034172;28;20266;-90
2021/12/16 03:51:27;;;;;;;30.53;24.57;;;10.50;99.90;;;;;;5034720;28;20177;-84
2021/12/16 03:54:15;;;;;;;32.53;25.20;;;10.70;99.90;;;;;;5031708;28;20175;-83
2021/12/16 03:56:42;;;;;;;31.87;24.90;;;10.80;99.90;;;;;;5009242;28;20174;-87
2021/12/16 03:59:15;;;;;;;33.57;25.33;;;10.60;99.90;;;;;;5026648;28;20175;-86
2021/12/16 04:01:42;;;;;;;28.70;23.63;;;10.60;99.90;;;;;;5037081;28;20189;-85
2021/12/16 04:04:07;;;;;;;31.47;23.80;;;10.60;99.90;;;;;;5037235;28;20230;-83
2021/12/16 04:06:40;;;;;;;30.80;24.10;;;10.70;99.90;;;;;;5036979;28;20167;-86
2021/12/16 04:09:13;;;;;;;32.60;24.00;;;10.60;99.90;;;;;;5035664;28;20210;-82
2021/12/16 04:11:56;;;;;;;29.37;23.60;;;10.60;99.90;;;;;;4943430;28;2227793;-91
2021/12/16 04:21:26;;;;;;;29.63;23.97;;;10.50;99.90;;;;;;5036837;28;20174;-84
2021/12/16 04:24:27;;;;;;;31.90;23.77;;;10.80;99.90;;;;;;5031414;28;20178;-89
2021/12/16 04:26:55;;;;;;;31.73;24.57;;;10.70;99.90;;;;;;5029400;28;20265;-89
2021/12/16 04:29:23;;;;;;;32.33;24.33;;;10.60;99.90;;;;;;5028465;28;20218;-90
2021/12/16 04:31:49;;;;;;;28.13;23.77;;;10.50;99.90;;;;;;5022543;28;20186;-91
2021/12/16 04:34:17;;;;;;;30.63;24.47;;;10.40;99.90;;;;;;5016097;28;20166;-90
2021/12/16 04:36:45;;;;;;;29.10;22.57;;;10.40;99.90;;;;;;5020810;28;20178;-89
2021/12/16 04:39:15;;;;;;;29.93;22.63;;;10.40;99.90;;;;;;5023207;28;20642;-86
2021/12/16 04:41:43;;;;;;;29.63;24.33;;;10.50;99.90;;;;;;5021915;28;20173;-91
2021/12/16 04:44:12;;;;;;;30.20;24.87;;;10.40;99.90;;;;;;5033209;28;20177;-83
2021/12/16 04:46:38;;;;;;;32.77;25.10;;;10.60;99.90;;;;;;5040179;28;20182;-85
2021/12/16 04:49:07;;;;;;;32.43;25.63;;;10.50;99.90;;;;;;5039646;28;20289;-81
2021/12/16 04:51:38;;;;;;;31.40;24.23;;;10.70;99.90;;;;;;5038211;28;20170;-83
2021/12/16 04:54:07;;;;;;;33.37;24.60;;;10.50;99.90;;;;;;5036987;28;20549;-84
2021/12/16 05:00:00;;;;;;;31.37;25.00;;;10.40;99.90;;;;;;5025740;28;20181;-84
2021/12/16 05:02:27;;;;;;;33.17;26.30;;;10.60;99.90;;;;;;5024533;28;20627;-89
2021/12/16 05:04:53;;;;;;;31.50;25.73;;;10.60;99.90;;;;;;5032057;28;20241;-87
2021/12/16 05:07:25;;;;;;;32.73;25.03;;;10.50;99.90;;;;;;5042103;28;20182;-83
2021/12/16 05:10:06;;;;;;;33.93;26.70;;;10.40;99.90;;;;;;5036034;28;20230;-83
2021/12/16 05:15:57;;;;;;;33.83;25.50;;;10.50;99.90;;;;;;5020952;28;20193;-84
2021/12/16 05:18:36;;;;;;;32.70;24.67;;;10.70;99.90;;;;;;5033719;28;20188;-90
2021/12/16 05:21:16;;;;;;;32.57;25.80;;;10.50;99.90;;;;;;5030847;28;20166;-84
2021/12/16 05:26:30;;;;;;;33.40;24.83;;;10.90;99.90;;;;;;5024324;28;20189;-90
2021/12/16 05:28:59;;;;;;;35.53;27.03;;;10.60;99.90;;;;;;5024506;28;20198;-90
2021/12/16 05:31:27;;;;;;;31.53;25.03;;;10.40;99.90;;;;;;5027493;28;20635;-84
2021/12/16 05:33:57;;;;;;;32.30;24.80;;;10.40;99.90;;;;;;5021705;28;20217;-87
2021/12/16 05:36:25;;;;;;;31.17;25.33;;;10.60;99.90;;;;;;5018257;28;20269;-91
2021/12/16 05:38:51;;;;;;;29.23;24.07;;;10.40;99.90;;;;;;5002548;28;20205;-91
2021/12/16 05:41:19;;;;;;;32.97;26.13;;;10.50;99.90;;;;;;5018418;28;20182;-91
2021/12/16 05:43:45;;;;;;;32.97;24.30;;;10.60;99.90;;;;;;5018334;28;20193;-89
2021/12/16 05:46:15;;;;;;;32.60;25.13;;;10.50;99.90;;;;;;5029733;28;20254;-89
2021/12/16 05:48:43;;;;;;;34.83;26.93;;;10.60;99.90;;;;;;5039776;28;20186;-86
2021/12/16 05:51:21;;;;;;;37.40;25.07;;;10.50;99.90;;;;;;5035570;28;20193;-83
2021/12/16 05:57:49;;;;;;;33.53;26.30;;;10.60;99.90;;;;;;5025608;28;20178;-92
2021/12/16 06:00:26;;;;;;;37.53;24.80;;;10.50;99.90;;;;;;5024582;28;20197;-84
2021/12/16 06:06:15;;;;;;;36.67;25.47;;;10.60;99.90;;;;;;5020005;28;20242;-90
2021/12/16 06:08:44;;;;;;;39.23;26.30;;;10.70;99.90;;;;;;5034747;28;20178;-84
2021/12/16 06:11:18;;;;;;;34.87;26.10;;;10.70;99.90;;;;;;5038781;28;20285;-88
2021/12/16 06:13:58;;;;;;;33.20;24.57;;;10.70;99.90;;;;;;5024559;28;20221;-84
2021/12/16 06:27:53;;;;;;;35.83;26.23;;;10.70;99.90;;;;;;5004464;28;20202;-89
2021/12/16 06:30:28;;;;;;;36.07;25.77;;;10.90;99.90;;;;;;4999823;28;20210;-91
2021/12/16 06:32:54;;;;;;;32.73;25.63;;;10.80;99.90;;;;;;5001695;28;20182;-91
2021/12/16 06:35:24;;;;;;;35.23;26.43;;;10.70;99.90;;;;;;5001804;28;20189;-92
2021/12/16 06:37:51;;;;;;;34.57;26.17;;;10.70;99.90;;;;;;4967567;28;20194;-90
2021/12/16 06:40:19;;;;;;;34.00;25.93;;;10.60;99.90;;;;;;5002868;28;20262;-93
2021/12/16 06:42:48;;;;;;;32.87;25.03;;;10.60;99.90;;;;;;5003857;28;20198;-92
2021/12/16 06:45:28;;;;;;;35.23;25.33;;;10.60;99.90;;;;;;5019052;28;20289;-93
2021/12/16 06:48:01;;;;;;;33.30;25.43;;;10.50;99.90;;;;;;5030290;28;20189;-91
2021/12/16 06:53:02;;;;;;;32.40;25.47;;;10.60;99.90;;;;;;5032812;28;20301;-93
2021/12/16 06:55:41;;;;;;;31.73;25.27;;;10.60;99.90;;;;;;5029266;28;20190;-93
2021/12/16 06:58:34;;;;;;;34.47;26.23;;;10.70;99.90;;;;;;5023465;28;20213;-85
2021/12/16 07:01:03;;;;;;;37.10;26.53;;;10.80;99.90;;;;;;5035466;28;20197;-85
2021/12/16 07:03:40;;;;;;;35.73;26.50;;;10.90;99.90;;;;;;5035294;28;20174;-91
2021/12/16 07:06:06;;;;;;;32.37;25.87;;;11.00;99.90;;;;;;5021975;28;20692;-90
2021/12/16 07:08:35;;;;;;;33.17;25.13;;;10.90;99.90;;;;;;5019199;28;20169;-88
2021/12/16 07:11:01;;;;;;;32.10;25.43;;;10.90;99.90;;;;;;5002587;28;20202;-92
2021/12/16 07:13:31;;;;;;;33.17;25.90;;;11.00;99.90;;;;;;5020306;28;20178;-91
2021/12/16 07:15:59;;;;;;;30.10;24.67;;;10.90;99.90;;;;;;5022075;28;20173;-89
2021/12/16 07:18:25;;;;;;;32.67;25.70;;;11.00;99.90;;;;;;5024013;28;20221;-91
2021/12/16 07:20:52;;;;;;;34.50;26.93;;;11.00;99.90;;;;;;5037130;28;20162;-91
2021/12/16 07:23:18;;;;;;;32.03;26.30;;;11.00;99.90;;;;;;5019005;28;20174;-87
2021/12/16 07:25:45;;;;;;;34.40;26.00;;;11.10;99.90;;;;;;5036249;28;20192;-89
2021/12/16 07:28:11;;;;;;;36.80;26.37;;;11.10;99.90;;;;;;5036849;28;20170;-88
2021/12/16 07:30:40;;;;;;;36.10;25.77;;;11.10;99.90;;;;;;5035899;28;20257;-87
2021/12/16 07:33:09;;;;;;;34.93;25.70;;;11.00;99.90;;;;;;5032037;28;20201;-89
2021/12/16 07:35:58;;;;;;;34.37;25.70;;;11.00;99.90;;;;;;5021084;28;20236;-88
2021/12/16 07:38:25;;;;;;;35.47;27.03;;;11.10;99.90;;;;;;5033157;28;20209;-85
2021/12/16 07:40:53;;;;;;;36.30;29.03;;;11.20;99.90;;;;;;5037293;28;20169;-85
2021/12/16 07:46:04;;;;;;;33.60;26.00;;;11.20;99.90;;;;;;5032911;28;20180;-89
2021/12/16 07:48:50;;;;;;;32.70;24.57;;;11.20;99.90;;;;;;5036582;28;20202;-87
2021/12/16 07:51:22;;;;;;;36.50;26.00;;;11.30;99.90;;;;;;5035194;28;20193;-87
2021/12/16 07:54:39;;;;;;;39.30;26.70;;;11.20;99.90;;;;;;5011218;28;20186;-88
2021/12/16 07:57:49;;;;;;;35.07;26.03;;;11.30;99.90;;;;;;5022919;28;20177;-89
2021/12/16 08:00:23;;;;;;;31.80;26.33;;;11.20;99.90;;;;;;5023773;28;20627;-91
2021/12/16 08:02:49;;;;;;;34.23;25.93;;;11.20;99.90;;;;;;5029185;28;20177;-87
2021/12/16 08:05:18;;;;;;;33.47;26.07;;;11.20;99.90;;;;;;5036594;28;20182;-87
2021/12/16 08:07:44;;;;;;;34.17;26.53;;;11.20;99.90;;;;;;5017068;28;20170;-88
2021/12/16 08:10:14;;;;;;;35.50;26.33;;;11.10;99.90;;;;;;5034294;28;20202;-90
2021/12/16 08:12:43;;;;;;;36.20;28.13;;;11.20;99.90;;;;;;5001929;28;20642;-91
2021/12/16 08:15:26;;;;;;;35.83;27.53;;;11.20;99.90;;;;;;5001149;28;20214;-90
2021/12/16 08:17:54;;;;;;;33.63;26.50;;;11.20;99.90;;;;;;5020673;28;20240;-89
2021/12/16 08:20:23;;;;;;;36.57;27.27;;;11.30;99.90;;;;;;5033171;28;20180;-87
2021/12/16 08:22:51;;;;;;;32.50;25.97;;;11.40;99.90;;;;;;5035809;28;20175;-91
2021/12/16 08:25:24;;;;;;;33.90;26.53;;;11.40;99.90;;;;;;5008170;28;20273;-90
2021/12/16 08:27:52;;;;;;;36.40;25.53;;;11.40;99.90;;;;;;5020722;28;20210;-91
2021/12/16 08:30:21;;;;;;;35.30;28.20;;;11.40;99.90;;;;;;5016090;28;20282;-90
2021/12/16 08:32:47;;;;;;;37.90;27.57;;;11.40;99.90;;;;;;5026090;28;20203;-93
2021/12/16 08:35:14;;;;;;;34.30;25.70;;;11.40;99.90;;;;;;5029171;28;20174;-88
2021/12/16 08:37:42;;;;;;;35.03;27.80;;;11.60;99.90;;;;;;5036269;28;20234;-91
2021/12/16 08:40:12;;;;;;;37.17;27.60;;;11.50;99.90;;;;;;5035139;28;20190;-88
2021/12/16 08:42:40;;;;;;;34.63;26.57;;;11.40;99.90;;;;;;5035273;28;20178;-83
2021/12/16 08:45:30;;;;;;;36.10;26.17;;;11.50;99.90;;;;;;5016676;28;20210;-84
2021/12/16 08:47:57;;;;;;;36.47;27.70;;;11.60;99.90;;;;;;5035093;28;20237;-89
2021/12/16 08:50:32;;;;;;;39.67;28.30;;;11.50;99.90;;;;;;5033244;28;20229;-87
2021/12/16 08:53:01;;;;;;;38.17;27.40;;;11.50;99.90;;;;;;5030615;28;20203;-91
2021/12/16 08:55:32;;;;;;;39.03;28.03;;;11.70;99.90;;;;;;5033424;28;20182;-91
2021/12/16 08:58:01;;;;;;;36.37;27.60;;;11.70;99.90;;;;;;5034318;28;20178;-85
2021/12/16 09:00:36;;;;;;;34.03;26.83;;;11.70;99.90;;;;;;5023828;28;20175;-84
2021/12/16 09:03:07;;;;;;;39.17;29.43;;;11.60;99.90;;;;;;5021146;28;20173;-89
2021/12/16 09:05:45;;;;;;;39.53;28.43;;;11.60;99.90;;;;;;5026174;28;20297;-92
2021/12/16 09:08:12;;;;;;;34.07;26.37;;;11.60;99.90;;;;;;5019758;28;20190;-92
2021/12/16 09:11:03;;;;;;;36.37;27.70;;;11.50;99.90;;;;;;5017698;28;20549;-85
2021/12/16 09:13:30;;;;;;;33.27;26.33;;;11.50;99.90;;;;;;5028440;28;20175;-86
2021/12/16 09:16:03;;;;;;;31.50;26.17;;;11.60;99.90;;;;;;5036681;28;20265;-88
2021/12/16 09:18:32;;;;;;;35.00;26.53;;;11.50;99.90;;;;;;5016246;28;20189;-87
2021/12/16 09:21:03;;;;;;;33.10;27.23;;;11.60;99.90;;;;;;5028945;28;20202;-84
2021/12/16 09:23:32;;;;;;;36.73;28.00;;;11.60;99.90;;;;;;5003866;28;20207;-84
2021/12/16 09:26:01;;;;;;;36.43;27.60;;;11.70;99.90;;;;;;5009776;28;20206;-86
2021/12/16 09:28:29;;;;;;;35.60;26.80;;;11.80;99.90;;;;;;5040336;28;20164;-89
2021/12/16 09:30:56;;;;;;;33.50;27.23;;;11.80;99.90;;;;;;4984762;28;20893;-87
2021/12/16 09:33:25;;;;;;;35.37;26.03;;;11.80;99.90;;;;;;5004458;28;20168;-90
2021/12/16 09:35:54;;;;;;;35.43;26.63;;;11.80;99.90;;;;;;5001903;28;20199;-91
2021/12/16 09:38:21;;;;;;;34.23;27.40;;;11.90;99.90;;;;;;5019940;28;20174;-85
2021/12/16 09:40:53;;;;;;;36.10;26.63;;;11.60;99.90;;;;;;5039496;28;20182;-86
2021/12/16 09:43:22;;;;;;;33.63;25.33;;;11.40;99.90;;;;;;5034693;28;20258;-88
2021/12/16 09:46:02;;;;;;;32.43;26.33;;;11.40;99.90;;;;;;5029885;28;20194;-84
2021/12/16 09:48:52;;;;;;;35.30;26.20;;;11.50;99.90;;;;;;5007766;28;20176;-90
2021/12/16 09:51:51;;;;;;;37.33;26.47;;;11.70;99.90;;;;;;5022722;28;20217;-91
2021/12/16 09:54:23;;;;;;;37.50;27.60;;;11.80;99.90;;;;;;5034463;28;20163;-85
2021/12/16 09:56:52;;;;;;;35.90;26.40;;;11.80;99.90;;;;;;5025075;28;20236;-87
2021/12/16 09:59:21;;;;;;;34.23;25.87;;;11.80;99.90;;;;;;5023201;28;20186;-91
2021/12/16 10:01:50;;;;;;;37.77;27.43;;;11.80;99.90;;;;;;5005300;28;20176;-92
2021/12/16 10:04:21;;;;;;;38.80;27.93;;;11.80;99.90;;;;;;5028797;28;20170;-89
2021/12/16 10:06:53;;;;;;;35.33;26.60;;;11.80;99.90;;;;;;5020984;28;20210;-87
2021/12/16 10:09:20;;;;;;;33.63;27.50;;;11.90;99.90;;;;;;5034607;28;20263;-86
2021/12/16 10:11:50;;;;;;;34.37;26.80;;;11.90;99.90;;;;;;5033829;28;20170;-84
2021/12/16 10:14:31;;;;;;;41.40;30.00;;;11.80;99.90;;;;;;5030657;28;20176;-88
2021/12/16 10:19:45;;;;;;;38.33;28.50;;;11.90;99.90;;;;;;5034381;28;20189;-86
2021/12/16 10:22:27;;;;;;;36.60;26.87;;;11.50;99.90;;;;;;5033357;28;20241;-88
2021/12/16 10:25:30;;;;;;;36.07;25.20;;;11.50;99.90;;;;;;5024074;28;20185;-91
2021/12/16 10:28:14;;;;;;;36.10;28.20;;;11.50;99.90;;;;;;5017087;28;20185;-85
2021/12/16 10:30:50;;;;;;;35.93;26.47;;;11.40;99.90;;;;;;5025074;28;20226;-84
2021/12/16 10:33:30;;;;;;;37.07;26.43;;;11.40;99.90;;;;;;5031839;28;20166;-82
2021/12/16 10:36:24;;;;;;;35.63;26.90;;;11.50;99.90;;;;;;5028298;28;20189;-85
2021/12/16 10:39:16;;;;;;;38.13;27.30;;;11.50;99.90;;;;;;5028080;28;20170;-86
2021/12/16 10:42:17;;;;;;;38.03;25.93;;;11.50;99.90;;;;;;5025382;28;20177;-88
2021/12/16 10:45:02;;;;;;;40.27;29.10;;;11.50;99.90;;;;;;5031406;28;20245;-86
2021/12/16 10:47:29;;;;;;;42.97;29.20;;;11.70;99.90;;;;;;5025675;28;20175;-85
2021/12/16 10:49:57;;;;;;;42.53;29.67;;;11.80;99.90;;;;;;5036882;28;20210;-83
2021/12/16 10:52:32;;;;;;;38.47;26.60;;;11.70;99.90;;;;;;5036096;28;20189;-89
2021/12/16 10:55:06;;;;;;;35.77;26.27;;;11.70;99.90;;;;;;5027305;28;20166;-93
2021/12/16 10:57:42;;;;;;;36.03;27.67;;;11.70;99.90;;;;;;5014789;28;20175;-90
2021/12/16 11:00:36;;;;;;;33.90;26.33;;;11.70;99.90;;;;;;5023552;28;20167;-86
2021/12/16 11:06:50;;;;;;;35.83;25.17;;;11.70;99.90;;;;;;5019658;28;20187;-84
2021/12/16 11:10:04;;;;;;;33.83;25.90;;;11.70;99.90;;;;;;5018403;28;20195;-85
2021/12/16 11:13:11;;;;;;;30.43;24.77;;;11.80;99.90;;;;;;5020042;28;20175;-87
2021/12/16 11:16:35;;;;;;;37.07;25.63;;;12.00;99.90;;;;;;5017367;28;20183;-85
2021/12/16 11:19:39;;;;;;;37.07;28.03;;;12.30;99.90;;;;;;5010396;28;20173;-85
2021/12/16 11:22:32;;;;;;;36.33;27.07;;;12.50;99.90;;;;;;5008820;28;20177;-88
2021/12/16 11:28:47;;;;;;;37.20;27.47;;;12.60;99.90;;;;;;5017968;28;20168;-86
2021/12/16 11:31:28;;;;;;;34.57;26.17;;;12.60;99.60;;;;;;5016761;28;20199;-86
2021/12/16 11:34:19;;;;;;;33.07;26.43;;;12.70;99.60;;;;;;5019320;28;20159;-84
2021/12/16 11:36:54;;;;;;;34.47;26.07;;;12.70;98.90;;;;;;5018725;28;20155;-85
2021/12/16 11:39:29;;;;;;;34.07;26.60;;;12.80;99.30;;;;;;5017560;28;20200;-86
2021/12/16 11:48:40;;;;;;;34.67;26.83;;;13.00;97.30;;;;;;5018817;28;20154;-86
2021/12/16 11:52:18;;;;;;;36.43;26.13;;;12.90;96.10;;;;;;5018184;28;20173;-85
2021/12/16 11:54:57;;;;;;;36.63;31.53;;;13.10;96.20;;;;;;5014946;28;20261;-90
2021/12/16 11:57:37;;;;;;;41.63;31.87;;;13.00;97.00;;;;;;5004975;28;20646;-90
2021/12/16 12:00:17;;;;;;;33.33;28.60;;;13.20;95.60;;;;;;5002831;28;20179;-92
2021/12/16 12:03:00;;;;;;;39.47;27.53;;;13.20;95.10;;;;;;5001193;28;20185;-86
2021/12/16 12:05:39;;;;;;;37.67;27.60;;;13.00;95.90;;;;;;5018108;28;20604;-91
2021/12/16 12:08:20;;;;;;;33.60;26.50;;;12.90;97.10;;;;;;5017149;28;20553;-88
2021/12/16 12:11:06;;;;;;;35.23;26.60;;;13.10;97.30;;;;;;5016361;28;20255;-90
2021/12/16 12:13:43;;;;;;;35.93;28.03;;;13.20;97.00;;;;;;5007623;28;20167;-90
2021/12/16 12:16:24;;;;;;;36.53;27.10;;;13.40;95.80;;;;;;5001613;28;20215;-87
2021/12/16 12:19:01;;;;;;;38.20;30.07;;;13.50;93.20;;;;;;4999826;28;20208;-87
2021/12/16 12:22:17;;;;;;;34.23;27.07;;;13.50;93.00;;;;;;5013346;28;20170;-87
2021/12/16 12:24:47;;;;;;;33.50;26.73;;;13.40;93.20;;;;;;5021840;28;20190;-94
2021/12/16 12:27:45;;;;;;;36.47;28.10;;;13.60;92.50;;;;;;5029954;28;20169;-93
2021/12/16 12:30:12;;;;;;;34.73;26.87;;;13.50;93.50;;;;;;5022286;28;20209;-94
2021/12/16 12:32:45;;;;;;;36.30;28.23;;;13.50;93.10;;;;;;5006725;28;20250;-94
2021/12/16 12:35:35;;;;;;;37.03;28.97;;;13.50;92.60;;;;;;5017991;28;20193;-89
2021/12/16 12:38:03;;;;;;;36.53;27.93;;;13.60;92.40;;;;;;5017464;28;20187;-90
2021/12/16 12:40:36;;;;;;;38.40;29.07;;;13.60;92.80;;;;;;5035284;28;20187;-85
2021/12/16 12:43:05;;;;;;;35.43;27.97;;;13.60;92.40;;;;;;5027967;28;20169;-85
2021/12/16 12:45:35;;;;;;;36.73;26.87;;;13.70;92.30;;;;;;5014837;28;20618;-92
2021/12/16 12:48:09;;;;;;;36.03;27.20;;;13.60;92.80;;;;;;5019291;28;20263;-87
2021/12/16 12:50:40;;;;;;;35.60;27.87;;;13.60;92.60;;;;;;5004565;28;20292;-84
2021/12/16 12:53:23;;;;;;;34.17;27.27;;;13.70;92.00;;;;;;5027870;28;20203;-84
2021/12/16 12:56:09;;;;;;;36.50;28.30;;;13.70;91.70;;;;;;5006129;28;20208;-87
2021/12/16 12:58:51;;;;;;;37.87;27.40;;;13.80;91.40;;;;;;5015916;28;20162;-85
2021/12/16 13:01:31;;;;;;;31.87;26.73;;;13.80;91.70;;;;;;5033065;28;20174;-91
2021/12/16 13:04:10;;;;;;;33.83;27.17;;;13.80;91.70;;;;;;5024401;28;20164;-85
2021/12/16 13:07:05;;;;;;;37.97;27.53;;;13.80;91.60;;;;;;5039874;28;20189;-85
2021/12/16 13:10:04;;;;;;;37.60;27.20;;;13.90;91.60;;;;;;5038377;28;20364;-87
2021/12/16 13:15:25;;;;;;;40.10;27.57;;;14.00;91.40;;;;;;5032017;28;20208;-85
2021/12/16 13:24:03;;;;;;;36.97;28.07;;;14.10;87.80;;;;;;5039561;28;20186;-88
2021/12/16 13:26:49;;;;;;;36.87;27.53;;;14.00;88.70;;;;;;5031850;28;20184;-89
2021/12/16 13:29:53;;;;;;;37.47;27.97;;;14.10;85.60;;;;;;5022770;28;20218;-90
2021/12/16 13:32:22;;;;;;;38.67;28.63;;;14.20;85.60;;;;;;5028105;28;20169;-90
2021/12/16 13:35:52;;;;;;;40.17;26.97;;;14.00;88.60;;;;;;5023268;28;20191;-90
2021/12/16 13:37:53;;;;;;;35.73;27.07;;;14.00;90.40;;;;;;5014622;28;20184;-89
2021/12/16 13:40:33;;;;;;;38.67;27.93;;;14.10;90.10;;;;;;5026921;28;20189;-91
2021/12/16 13:43:15;;;;;;;36.00;28.20;;;14.10;90.00;;;;;;4991291;28;20200;-91
2021/12/16 13:45:59;;;;;;;35.60;26.87;;;14.10;90.20;;;;;;5032223;28;20204;-85
2021/12/16 13:58:10;;;;;;;33.80;25.80;;;14.20;89.90;;;;;;5039915;28;20185;-86
2021/12/16 14:03:49;;;;;;;35.33;24.40;;;14.20;77.00;;;;;;5031328;28;20639;-84
2021/12/16 14:06:33;;;;;;;31.07;22.53;;;14.20;78.20;;;;;;5030651;28;20158;-89
2021/12/16 14:09:17;;;;;;;30.70;25.07;;;14.10;76.30;;;;;;5050950;28;20208;-86
2021/12/16 14:13:01;;;;;;;33.93;26.27;;;14.00;79.20;;;;;;5044612;28;20175;-89
2021/12/16 14:23:41;;;;;;;33.83;26.67;;;14.20;87.50;;;;;;5016689;28;20171;-91
2021/12/16 14:35:00;;;;;;;33.80;26.57;;;14.20;89.90;;;;;;5017968;28;20213;-85
2021/12/16 14:38:25;;;;;;;33.67;24.90;;;14.20;89.90;;;;;;5002453;28;20184;-84
2021/12/16 14:41:06;;;;;;;33.53;24.30;;;14.20;88.30;;;;;;5027456;28;20236;-87
2021/12/16 14:43:54;;;;;;;35.07;26.07;;;14.30;84.70;;;;;;5040455;28;20165;-88
2021/12/16 14:46:32;;;;;;;30.27;25.57;;;14.30;82.80;;;;;;5022395;28;20245;-88
2021/12/16 14:48:57;;;;;;;35.63;27.70;;;14.30;81.20;;;;;;5036630;28;20204;-89
2021/12/16 14:51:24;;;;;;;34.87;25.70;;;14.20;83.40;;;;;;5038614;28;20186;-87
2021/12/16 14:53:54;;;;;;;30.10;23.93;;;14.20;82.50;;;;;;5002235;28;20178;-91
2021/12/16 14:56:26;;;;;;;34.20;23.73;;;14.30;81.20;;;;;;5029608;28;20217;-93
2021/12/16 14:58:57;;;;;;;31.57;25.23;;;14.20;78.30;;;;;;5031031;28;20169;-93
2021/12/16 15:01:32;;;;;;;32.80;25.00;;;14.20;79.00;;;;;;5024164;28;20230;-89
2021/12/16 15:04:00;;;;;;;31.47;25.33;;;14.20;79.90;;;;;;5024926;28;20190;-93
2021/12/16 15:06:40;;;;;;;33.70;27.10;;;14.10;80.90;;;;;;5030785;28;20177;-88
2021/12/16 15:09:33;;;;;;;40.27;28.40;;;14.10;82.70;;;;;;5032496;28;20214;-84
2021/12/16 15:12:39;;;;;;;37.47;29.17;;;14.10;84.60;;;;;;5037843;28;20158;-86
2021/12/16 15:45:27;;;;;;;39.50;31.57;;;13.20;94.10;;;;;;5030877;28;20176;-86
2021/12/16 15:48:15;;;;;;;40.93;31.63;;;13.20;94.10;;;;;;5033649;28;20187;-86
2021/12/16 15:50:51;;;;;;;43.80;30.43;;;13.20;94.20;;;;;;5026702;28;20219;-84
2021/12/16 15:53:21;;;;;;;42.27;30.17;;;12.90;95.20;;;;;;5024396;28;20188;-85
2021/12/16 15:56:17;;;;;;;46.03;33.40;;;12.80;95.90;;;;;;5020246;28;20200;-90
2021/12/16 15:59:01;;;;;;;47.13;34.23;;;12.80;96.40;;;;;;5020715;28;20178;-87
2021/12/16 16:01:37;;;;;;;46.80;37.73;;;12.70;96.90;;;;;;5021530;28;20188;-88
2021/12/16 16:04:43;;;;;;;52.40;40.50;;;12.70;96.90;;;;;;5022249;28;20183;-90
2021/12/16 16:07:13;;;;;;;44.87;34.87;;;12.70;97.50;;;;;;5018460;28;20180;-86
2021/12/16 16:09:46;;;;;;;45.97;35.63;;;12.60;97.30;;;;;;5033894;28;20187;-85
2021/12/16 16:12:17;;;;;;;44.00;34.27;;;12.50;97.80;;;;;;5033861;28;20231;-90
2021/12/16 16:14:50;;;;;;;50.67;35.20;;;12.50;98.20;;;;;;5031905;28;20530;-84
2021/12/16 16:17:19;;;;;;;44.33;33.47;;;12.60;98.10;;;;;;5036555;28;20183;-87
2021/12/16 16:19:48;;;;;;;46.80;32.13;;;12.60;97.60;;;;;;5034323;28;20200;-92
2021/12/16 16:22:15;;;;;;;44.23;33.70;;;12.50;97.90;;;;;;5010185;28;20193;-86
2021/12/16 16:24:49;;;;;;;44.47;34.30;;;12.60;97.80;;;;;;5024892;28;20221;-89
2021/12/16 16:27:26;;;;;;;51.00;33.03;;;12.50;98.10;;;;;;5026136;28;20681;-90
2021/12/16 16:29:57;;;;;;;44.53;34.30;;;12.40;98.60;;;;;;5030493;28;20222;-85
2021/12/16 16:32:25;;;;;;;42.13;32.57;;;12.30;98.80;;;;;;5027001;28;20174;-86
2021/12/16 16:35:00;;;;;;;44.20;32.60;;;12.20;99.20;;;;;;5037315;28;20170;-89
2021/12/16 16:37:33;;;;;;;43.30;34.43;;;12.30;99.40;;;;;;5036419;28;20178;-83
2021/12/16 16:40:07;;;;;;;41.07;33.40;;;12.30;99.20;;;;;;5032975;28;20177;-87
2021/12/16 16:42:41;;;;;;;44.87;34.73;;;12.30;99.30;;;;;;5041030;28;20189;-85
2021/12/16 16:45:19;;;;;;;46.33;35.03;;;12.30;99.20;;;;;;5040876;28;20216;-87
2021/12/16 16:47:54;;;;;;;43.57;34.40;;;12.30;99.20;;;;;;5038207;28;20214;-87
2021/12/16 16:50:38;;;;;;;54.90;36.80;;;12.30;99.10;;;;;;5034676;28;20209;-91
2021/12/16 16:53:26;;;;;;;52.40;38.30;;;12.30;99.00;;;;;;5023624;28;20164;-87
2021/12/16 16:55:53;;;;;;;46.80;37.30;;;12.50;98.10;;;;;;5022086;28;20244;-88
2021/12/16 16:58:19;;;;;;;51.90;38.27;;;12.60;97.20;;;;;;5016840;28;20173;-87
2021/12/16 17:00:50;;;;;;;57.57;38.70;;;12.50;97.00;;;;;;5040819;28;20158;-88
2021/12/16 17:03:22;;;;;;;54.03;38.37;;;12.40;98.40;;;;;;5041086;28;20161;-87
2021/12/16 17:06:00;;;;;;;51.27;36.50;;;12.30;98.30;;;;;;5028656;28;20170;-86
2021/12/16 17:08:31;;;;;;;51.23;37.30;;;12.30;98.70;;;;;;5019572;28;20193;-88
2021/12/16 17:11:28;;;;;;;50.80;38.03;;;12.20;99.10;;;;;;5006370;28;20206;-89